createdAt,value
2018-03-31T00:00:13.132Z,0.00
2018-03-31T00:01:13.097Z,0.00
2018-03-31T00:02:13.084Z,0.00
2018-03-31T00:03:13.049Z,0.00
2018-03-31T00:04:13.022Z,0.00
2018-03-31T00:05:13.018Z,0.00
2018-03-31T00:06:12.971Z,0.00
2018-03-31T00:07:12.946Z,0.00
2018-03-31T00:08:12.917Z,0.00
2018-03-31T00:09:12.891Z,0.00
2018-03-31T00:10:12.877Z,0.00
2018-03-31T00:11:12.853Z,0.00
2018-03-31T00:12:12.855Z,0.00
2018-03-31T00:13:12.801Z,0.00
2018-03-31T00:14:12.772Z,0.00
2018-03-31T00:15:12.775Z,0.00
2018-03-31T00:16:12.714Z,0.00
2018-03-31T00:17:12.676Z,0.00
2018-03-31T00:18:12.690Z,0.00
2018-03-31T00:19:12.631Z,0.00
2018-03-31T00:20:12.616Z,0.00
2018-03-31T00:21:12.583Z,0.00
2018-03-31T00:22:12.557Z,0.00
2018-03-31T00:23:12.560Z,0.00
2018-03-31T00:24:12.531Z,0.00
2018-03-31T00:25:12.470Z,0.00
2018-03-31T00:26:12.455Z,0.00
2018-03-31T00:27:12.451Z,0.00
2018-03-31T00:28:12.389Z,0.00
2018-03-31T00:29:12.400Z,0.00
2018-03-31T00:30:12.373Z,0.00
2018-03-31T00:31:12.310Z,0.00
2018-03-31T00:32:12.310Z,0.00
2018-03-31T00:33:12.288Z,0.00
2018-03-31T00:34:12.231Z,0.00
2018-03-31T00:35:12.232Z,0.00
2018-03-31T00:36:12.186Z,0.00
2018-03-31T00:37:12.208Z,0.00
2018-03-31T00:38:12.149Z,0.00
2018-03-31T00:39:12.126Z,0.00
2018-03-31T00:40:12.135Z,0.00
2018-03-31T00:41:12.065Z,0.00
2018-03-31T00:42:12.045Z,0.00
2018-03-31T00:43:12.046Z,0.00
2018-03-31T00:44:11.988Z,0.00
2018-03-31T00:45:11.999Z,0.00
2018-03-31T00:46:11.968Z,0.00
2018-03-31T00:47:11.907Z,0.00
2018-03-31T00:48:11.882Z,0.00
2018-03-31T00:49:11.857Z,0.00
2018-03-31T00:50:11.822Z,0.00
2018-03-31T00:51:11.800Z,0.00
2018-03-31T00:52:11.820Z,0.00
2018-03-31T00:53:11.741Z,0.00
2018-03-31T00:54:11.721Z,0.00
2018-03-31T00:55:11.708Z,0.00
2018-03-31T00:56:11.662Z,0.00
2018-03-31T00:57:11.664Z,0.00
2018-03-31T00:58:11.605Z,0.00
2018-03-31T00:59:11.576Z,0.00
2018-03-31T01:00:11.579Z,0.00
2018-03-31T01:01:11.528Z,0.00
2018-03-31T01:02:11.492Z,0.00
2018-03-31T01:03:11.477Z,0.00
2018-03-31T01:04:11.479Z,0.00
2018-03-31T01:05:11.423Z,0.00
2018-03-31T01:06:11.406Z,0.00
2018-03-31T01:07:11.400Z,0.00
2018-03-31T01:08:11.336Z,0.00
2018-03-31T01:09:11.336Z,0.00
2018-03-31T01:10:11.313Z,0.00
2018-03-31T01:11:11.261Z,0.00
2018-03-31T01:12:11.252Z,0.00
2018-03-31T01:13:11.240Z,0.00
2018-03-31T01:14:11.228Z,0.00
2018-03-31T01:15:11.173Z,0.00
2018-03-31T01:16:11.145Z,0.00
2018-03-31T01:17:11.132Z,0.00
2018-03-31T01:18:11.099Z,0.00
2018-03-31T01:19:11.063Z,0.00
2018-03-31T01:20:11.097Z,0.00
2018-03-31T01:21:11.010Z,0.00
2018-03-31T01:22:10.984Z,0.00
2018-03-31T01:23:10.985Z,0.00
2018-03-31T01:24:10.927Z,0.00
2018-03-31T01:25:10.904Z,0.00
2018-03-31T01:26:10.918Z,0.00
2018-03-31T01:27:10.843Z,0.00
2018-03-31T01:28:10.803Z,0.00
2018-03-31T01:29:10.828Z,0.00
2018-03-31T01:30:10.763Z,0.00
2018-03-31T01:31:10.737Z,0.00
2018-03-31T01:32:10.737Z,0.00
2018-03-31T01:33:10.682Z,0.00
2018-03-31T01:34:10.696Z,0.00
2018-03-31T01:35:10.656Z,0.00
2018-03-31T01:36:18.584Z,0.00
2018-03-31T01:38:03.548Z,0.00
2018-03-31T01:39:03.453Z,0.00
2018-03-31T01:40:03.464Z,0.00
2018-03-31T01:41:03.427Z,0.00
2018-03-31T01:42:03.374Z,0.00
2018-03-31T01:43:03.377Z,0.00
2018-03-31T01:44:03.347Z,0.00
2018-03-31T01:45:03.310Z,0.00
2018-03-31T01:46:03.293Z,0.00
2018-03-31T01:47:03.267Z,0.00
2018-03-31T01:48:03.220Z,0.00
2018-03-31T01:49:03.193Z,0.00
2018-03-31T01:50:03.207Z,0.00
2018-03-31T01:51:03.139Z,0.00
2018-03-31T01:52:03.109Z,0.00
2018-03-31T01:53:03.080Z,0.00
2018-03-31T01:54:03.061Z,0.00
2018-03-31T01:55:03.049Z,0.00
2018-03-31T01:56:03.021Z,0.00
2018-03-31T01:57:05.498Z,0.00
2018-03-31T01:58:02.965Z,0.00
2018-03-31T01:59:02.945Z,0.00
2018-03-31T02:00:02.922Z,0.00
2018-03-31T02:01:02.883Z,0.00
2018-03-31T02:02:02.859Z,0.00
2018-03-31T02:03:02.862Z,0.00
2018-03-31T02:04:02.805Z,0.00
2018-03-31T02:05:02.801Z,0.00
2018-03-31T02:06:02.756Z,0.00
2018-03-31T02:07:02.721Z,0.00
2018-03-31T02:08:02.682Z,0.00
2018-03-31T02:09:02.716Z,0.00
2018-03-31T02:10:02.640Z,0.00
2018-03-31T02:11:02.623Z,0.00
2018-03-31T02:12:02.629Z,0.00
2018-03-31T02:13:02.561Z,0.00
2018-03-31T02:14:02.537Z,0.00
2018-03-31T02:15:02.543Z,0.00
2018-03-31T02:16:02.481Z,0.00
2018-03-31T02:17:02.454Z,0.00
2018-03-31T02:18:02.457Z,0.00
2018-03-31T02:19:02.399Z,0.00
2018-03-31T02:20:02.374Z,0.00
2018-03-31T02:21:02.380Z,0.00
2018-03-31T02:22:02.317Z,0.00
2018-03-31T02:23:02.274Z,0.00
2018-03-31T02:24:02.295Z,0.00
2018-03-31T02:25:02.238Z,0.00
2018-03-31T02:26:02.236Z,0.00
2018-03-31T02:27:02.185Z,0.00
2018-03-31T02:28:02.154Z,0.00
2018-03-31T02:29:02.126Z,0.00
2018-03-31T02:30:02.132Z,0.00
2018-03-31T02:31:02.075Z,0.00
2018-03-31T02:32:02.043Z,0.00
2018-03-31T02:33:02.023Z,0.00
2018-03-31T02:34:01.989Z,0.00
2018-03-31T02:35:01.971Z,0.00
2018-03-31T02:36:01.977Z,0.00
2018-03-31T02:37:01.913Z,0.00
2018-03-31T02:38:01.864Z,0.00
2018-03-31T02:39:01.882Z,0.00
2018-03-31T02:40:01.819Z,0.00
2018-03-31T02:41:01.802Z,0.00
2018-03-31T02:42:01.768Z,0.00
2018-03-31T02:43:01.741Z,0.00
2018-03-31T02:44:01.720Z,0.00
2018-03-31T02:45:01.712Z,0.00
2018-03-31T02:46:01.656Z,0.00
2018-03-31T02:47:01.644Z,0.00
2018-03-31T02:48:01.605Z,0.00
2018-03-31T02:49:01.577Z,0.00
2018-03-31T02:50:01.558Z,0.00
2018-03-31T02:51:01.526Z,0.00
2018-03-31T02:52:01.494Z,0.00
2018-03-31T02:53:01.483Z,0.00
2018-03-31T02:54:01.447Z,0.00
2018-03-31T02:55:01.407Z,0.00
2018-03-31T02:56:01.409Z,0.00
2018-03-31T02:57:01.363Z,0.00
2018-03-31T02:58:01.327Z,0.00
2018-03-31T02:59:01.296Z,0.00
2018-03-31T03:00:01.281Z,0.00
2018-03-31T03:01:01.243Z,0.00
2018-03-31T03:02:01.252Z,0.00
2018-03-31T03:03:01.199Z,0.00
2018-03-31T03:04:01.173Z,0.00
2018-03-31T03:05:01.179Z,0.00
2018-03-31T03:06:01.118Z,0.00
2018-03-31T03:07:01.085Z,0.00
2018-03-31T03:08:01.091Z,0.00
2018-03-31T03:09:01.040Z,0.00
2018-03-31T03:10:01.009Z,0.00
2018-03-31T03:11:01.012Z,0.00
2018-03-31T03:12:00.981Z,0.00
2018-03-31T03:13:00.924Z,0.00
2018-03-31T03:14:00.927Z,0.00
2018-03-31T03:15:00.915Z,0.00
2018-03-31T03:16:00.841Z,0.00
2018-03-31T03:17:00.846Z,0.00
2018-03-31T03:18:00.793Z,0.00
2018-03-31T03:19:00.763Z,0.00
2018-03-31T03:20:00.761Z,0.00
2018-03-31T03:21:00.712Z,0.00
2018-03-31T03:22:00.714Z,0.00
2018-03-31T03:23:00.682Z,0.00
2018-03-31T03:24:00.630Z,0.00
2018-03-31T03:25:00.605Z,0.00
2018-03-31T03:26:00.600Z,0.00
2018-03-31T03:27:00.607Z,0.00
2018-03-31T03:28:00.552Z,0.00
2018-03-31T03:29:00.523Z,0.00
2018-03-31T03:30:00.494Z,0.00
2018-03-31T03:31:00.509Z,0.00
2018-03-31T03:32:00.440Z,0.00
2018-03-31T03:33:00.414Z,0.00
2018-03-31T03:34:00.385Z,0.00
2018-03-31T03:35:00.355Z,0.00
2018-03-31T03:36:00.323Z,0.00
2018-03-31T03:37:00.306Z,0.00
2018-03-31T03:38:00.277Z,0.00
2018-03-31T03:39:00.218Z,0.00
2018-03-31T03:40:00.249Z,0.00
2018-03-31T03:41:00.187Z,0.00
2018-03-31T03:42:00.138Z,0.00
2018-03-31T03:43:00.168Z,0.00
2018-03-31T03:44:00.108Z,0.00
2018-03-31T03:45:00.084Z,0.00
2018-03-31T03:46:00.089Z,0.00
2018-03-31T03:47:00.026Z,0.00
2018-03-31T03:48:00.012Z,0.00
2018-03-31T03:48:59.998Z,0.00
2018-03-31T03:49:59.942Z,0.00
2018-03-31T03:50:59.903Z,0.00
2018-03-31T03:51:59.873Z,0.00
2018-03-31T03:52:59.851Z,0.00
2018-03-31T03:53:59.821Z,0.00
2018-03-31T03:54:59.787Z,0.00
2018-03-31T03:55:59.760Z,0.00
2018-03-31T03:56:59.735Z,0.00
2018-03-31T03:57:59.709Z,0.00
2018-03-31T03:58:59.688Z,0.00
2018-03-31T03:59:59.656Z,0.00
2018-03-31T04:00:59.633Z,0.00
2018-03-31T04:01:59.608Z,0.00
2018-03-31T04:02:59.571Z,0.00
2018-03-31T04:03:59.552Z,0.00
2018-03-31T04:04:59.520Z,0.00
2018-03-31T04:05:59.497Z,0.00
2018-03-31T04:06:59.494Z,0.00
2018-03-31T04:07:59.444Z,0.00
2018-03-31T04:08:59.409Z,0.00
2018-03-31T04:09:59.398Z,0.00
2018-03-31T04:10:59.368Z,0.00
2018-03-31T04:11:59.337Z,0.00
2018-03-31T04:12:59.309Z,0.00
2018-03-31T04:13:59.283Z,0.00
2018-03-31T04:14:59.249Z,0.00
2018-03-31T04:15:59.273Z,0.00
2018-03-31T04:16:59.210Z,0.00
2018-03-31T04:17:59.218Z,0.00
2018-03-31T04:18:59.168Z,0.00
2018-03-31T04:19:59.131Z,0.00
2018-03-31T04:20:59.112Z,0.00
2018-03-31T04:21:59.098Z,0.00
2018-03-31T04:22:59.047Z,0.00
2018-03-31T04:23:59.092Z,0.00
2018-03-31T04:24:59.000Z,0.00
2018-03-31T04:25:58.965Z,0.00
2018-03-31T04:26:58.971Z,0.00
2018-03-31T04:27:58.947Z,0.00
2018-03-31T04:28:58.884Z,0.00
2018-03-31T04:29:58.861Z,0.00
2018-03-31T04:30:58.852Z,0.00
2018-03-31T04:31:58.807Z,0.00
2018-03-31T04:32:58.777Z,0.00
2018-03-31T04:33:58.756Z,0.00
2018-03-31T04:34:58.717Z,0.00
2018-03-31T04:35:58.696Z,0.00
2018-03-31T04:36:58.691Z,0.00
2018-03-31T04:37:58.638Z,0.00
2018-03-31T04:38:58.620Z,0.00
2018-03-31T04:39:58.618Z,0.00
2018-03-31T04:40:58.555Z,0.00
2018-03-31T04:41:58.536Z,0.00
2018-03-31T04:42:58.529Z,0.00
2018-03-31T04:43:58.467Z,0.00
2018-03-31T04:44:58.477Z,0.00
2018-03-31T04:45:58.447Z,0.00
2018-03-31T04:46:58.391Z,0.00
2018-03-31T04:47:58.366Z,0.00
2018-03-31T04:48:58.342Z,0.00
2018-03-31T04:49:58.312Z,0.00
2018-03-31T04:50:58.268Z,0.00
2018-03-31T04:51:58.272Z,0.00
2018-03-31T04:52:58.237Z,0.00
2018-03-31T04:53:58.202Z,0.00
2018-03-31T04:54:58.188Z,0.00
2018-03-31T04:55:58.153Z,0.00
2018-03-31T04:56:58.107Z,0.00
2018-03-31T04:57:58.081Z,0.00
2018-03-31T04:58:58.059Z,0.00
2018-03-31T04:59:58.039Z,0.00
2018-03-31T05:00:58.043Z,0.00
2018-03-31T05:01:57.981Z,0.00
2018-03-31T05:02:57.961Z,0.00
2018-03-31T05:03:57.962Z,0.00
2018-03-31T05:04:57.893Z,0.00
2018-03-31T05:05:57.854Z,0.00
2018-03-31T05:06:57.878Z,0.00
2018-03-31T05:07:57.816Z,0.00
2018-03-31T05:08:57.800Z,0.00
2018-03-31T05:09:57.820Z,0.00
2018-03-31T05:10:57.735Z,0.00
2018-03-31T05:11:57.742Z,0.00
2018-03-31T05:12:57.713Z,0.00
2018-03-31T05:13:57.640Z,0.00
2018-03-31T05:14:57.715Z,0.00
2018-03-31T05:15:57.624Z,0.00
2018-03-31T05:16:57.591Z,0.00
2018-03-31T05:17:57.554Z,0.00
2018-03-31T05:18:57.555Z,5.63
2018-03-31T05:19:57.547Z,5.63
2018-03-31T05:20:57.463Z,5.63
2018-03-31T05:21:57.506Z,5.63
2018-03-31T05:22:57.405Z,5.63
2018-03-31T05:23:57.378Z,5.63
2018-03-31T05:24:57.361Z,5.63
2018-03-31T05:25:57.324Z,5.63
2018-03-31T05:26:57.282Z,5.63
2018-03-31T05:27:57.304Z,5.63
2018-03-31T05:28:57.251Z,5.63
2018-03-31T05:29:57.205Z,11.25
2018-03-31T05:30:57.194Z,11.25
2018-03-31T05:31:57.162Z,11.25
2018-03-31T05:32:57.112Z,11.25
2018-03-31T05:33:57.106Z,11.25
2018-03-31T05:34:57.078Z,11.25
2018-03-31T05:35:57.026Z,11.25
2018-03-31T05:36:57.043Z,11.25
2018-03-31T05:37:56.996Z,11.25
2018-03-31T05:38:56.947Z,11.25
2018-03-31T05:39:56.974Z,16.88
2018-03-31T05:40:56.915Z,16.88
2018-03-31T05:41:56.867Z,16.88
2018-03-31T05:42:56.891Z,16.88
2018-03-31T05:43:56.836Z,16.88
2018-03-31T05:44:56.805Z,16.88
2018-03-31T05:45:56.826Z,16.88
2018-03-31T05:46:56.755Z,22.50
2018-03-31T05:47:56.724Z,22.50
2018-03-31T05:48:56.734Z,22.50
2018-03-31T05:49:56.669Z,22.50
2018-03-31T05:50:56.645Z,22.50
2018-03-31T05:51:56.620Z,22.50
2018-03-31T05:52:56.589Z,22.50
2018-03-31T05:53:56.535Z,28.13
2018-03-31T05:54:56.509Z,28.13
2018-03-31T05:55:56.507Z,28.13
2018-03-31T05:56:56.490Z,28.13
2018-03-31T05:57:56.425Z,28.13
2018-03-31T05:58:56.425Z,28.13
2018-03-31T05:59:56.418Z,28.13
2018-03-31T06:00:56.339Z,28.13
2018-03-31T06:01:56.349Z,33.75
2018-03-31T06:02:56.286Z,33.75
2018-03-31T06:03:56.255Z,33.75
2018-03-31T06:04:56.260Z,33.75
2018-03-31T06:05:56.205Z,33.75
2018-03-31T06:06:56.177Z,39.38
2018-03-31T06:07:56.161Z,39.38
2018-03-31T06:08:56.121Z,39.38
2018-03-31T06:09:56.090Z,39.38
2018-03-31T06:10:56.069Z,39.38
2018-03-31T06:11:56.040Z,39.38
2018-03-31T06:12:56.019Z,45.00
2018-03-31T06:13:56.015Z,45.00
2018-03-31T06:14:55.988Z,45.00
2018-03-31T06:15:55.935Z,45.00
2018-03-31T06:16:55.931Z,45.00
2018-03-31T06:17:55.878Z,45.00
2018-03-31T06:18:55.848Z,45.00
2018-03-31T06:19:55.820Z,45.00
2018-03-31T06:20:55.798Z,50.63
2018-03-31T06:21:55.766Z,50.63
2018-03-31T06:22:55.770Z,50.63
2018-03-31T06:23:55.737Z,50.63
2018-03-31T06:24:55.685Z,50.63
2018-03-31T06:25:55.689Z,50.63
2018-03-31T06:26:55.630Z,56.25
2018-03-31T06:27:55.604Z,56.25
2018-03-31T06:28:55.609Z,56.25
2018-03-31T06:29:55.545Z,56.25
2018-03-31T06:30:55.521Z,56.25
2018-03-31T06:31:55.525Z,61.88
2018-03-31T06:32:55.491Z,61.88
2018-03-31T06:33:55.435Z,61.88
2018-03-31T06:34:55.444Z,61.88
2018-03-31T06:35:55.425Z,61.88
2018-03-31T06:36:55.357Z,67.50
2018-03-31T06:37:55.361Z,67.50
2018-03-31T06:38:55.329Z,67.50
2018-03-31T06:39:55.289Z,67.50
2018-03-31T06:40:55.283Z,67.50
2018-03-31T06:41:55.219Z,67.50
2018-03-31T06:42:55.188Z,67.50
2018-03-31T06:43:55.256Z,67.50
2018-03-31T06:44:55.170Z,67.50
2018-03-31T06:45:55.108Z,67.50
2018-03-31T06:46:55.090Z,67.50
2018-03-31T06:47:55.062Z,67.50
2018-03-31T06:48:55.038Z,67.50
2018-03-31T06:49:55.035Z,67.50
2018-03-31T06:50:54.974Z,67.50
2018-03-31T06:51:54.956Z,67.50
2018-03-31T06:52:54.955Z,61.88
2018-03-31T06:53:54.897Z,61.88
2018-03-31T06:54:54.874Z,61.88
2018-03-31T06:55:54.846Z,61.88
2018-03-31T06:56:54.806Z,67.50
2018-03-31T06:57:54.792Z,67.50
2018-03-31T06:58:54.761Z,67.50
2018-03-31T06:59:54.728Z,67.50
2018-03-31T07:00:54.710Z,67.50
2018-03-31T07:01:54.679Z,67.50
2018-03-31T07:02:54.647Z,67.50
2018-03-31T07:03:54.632Z,67.50
2018-03-31T07:04:54.594Z,67.50
2018-03-31T07:05:54.565Z,67.50
2018-03-31T07:06:54.541Z,67.50
2018-03-31T07:07:54.515Z,67.50
2018-03-31T07:08:54.485Z,67.50
2018-03-31T07:09:54.461Z,61.88
2018-03-31T07:10:54.433Z,61.88
2018-03-31T07:11:54.403Z,61.88
2018-03-31T07:12:54.382Z,61.88
2018-03-31T07:13:54.352Z,61.88
2018-03-31T07:14:54.330Z,61.88
2018-03-31T07:15:54.302Z,67.50
2018-03-31T07:16:54.277Z,67.50
2018-03-31T07:17:54.249Z,67.50
2018-03-31T07:18:54.210Z,67.50
2018-03-31T07:19:54.187Z,67.50
2018-03-31T07:20:54.167Z,67.50
2018-03-31T07:21:54.137Z,73.13
2018-03-31T07:22:54.111Z,73.13
2018-03-31T07:23:54.087Z,73.13
2018-03-31T07:24:54.052Z,67.50
2018-03-31T07:25:54.027Z,67.50
2018-03-31T07:26:54.020Z,67.50
2018-03-31T07:27:53.983Z,73.13
2018-03-31T07:28:53.953Z,73.13
2018-03-31T07:29:53.927Z,73.13
2018-03-31T07:30:53.893Z,73.13
2018-03-31T07:31:53.906Z,73.13
2018-03-31T07:32:53.975Z,73.13
2018-03-31T07:33:53.810Z,73.13
2018-03-31T07:34:53.799Z,73.13
2018-03-31T07:35:53.760Z,73.13
2018-03-31T07:36:53.820Z,73.13
2018-03-31T07:37:53.710Z,73.13
2018-03-31T07:38:53.682Z,73.13
2018-03-31T07:39:53.658Z,73.13
2018-03-31T07:40:53.625Z,78.75
2018-03-31T07:41:53.596Z,78.75
2018-03-31T07:42:53.577Z,78.75
2018-03-31T07:43:53.541Z,78.75
2018-03-31T07:44:53.522Z,78.75
2018-03-31T07:45:53.497Z,78.75
2018-03-31T07:46:53.471Z,78.75
2018-03-31T07:47:53.442Z,78.75
2018-03-31T07:48:53.410Z,78.75
2018-03-31T07:49:53.382Z,78.75
2018-03-31T07:50:53.361Z,78.75
2018-03-31T07:51:53.330Z,78.75
2018-03-31T07:52:53.317Z,78.75
2018-03-31T07:53:53.294Z,78.75
2018-03-31T07:54:53.251Z,78.75
2018-03-31T07:55:53.228Z,78.75
2018-03-31T07:56:53.208Z,84.38
2018-03-31T07:57:53.177Z,84.38
2018-03-31T07:58:53.143Z,84.38
2018-03-31T07:59:53.156Z,84.38
2018-03-31T08:00:53.113Z,84.38
2018-03-31T08:01:53.070Z,84.38
2018-03-31T08:02:53.043Z,84.38
2018-03-31T08:03:53.019Z,84.38
2018-03-31T08:04:52.990Z,84.38
2018-03-31T08:05:52.966Z,84.38
2018-03-31T08:06:52.952Z,84.38
2018-03-31T08:07:52.910Z,90.00
2018-03-31T08:08:52.883Z,90.00
2018-03-31T08:09:52.870Z,90.00
2018-03-31T08:10:52.835Z,90.00
2018-03-31T08:11:52.806Z,90.00
2018-03-31T08:12:52.791Z,90.00
2018-03-31T08:13:52.750Z,90.00
2018-03-31T08:14:52.734Z,90.00
2018-03-31T08:15:52.698Z,90.00
2018-03-31T08:16:53.848Z,90.00
2018-03-31T08:17:52.651Z,90.00
2018-03-31T08:18:52.627Z,84.38
2018-03-31T08:19:52.607Z,84.38
2018-03-31T08:20:54.560Z,84.38
2018-03-31T08:21:52.550Z,84.38
2018-03-31T08:22:52.517Z,84.38
2018-03-31T08:23:52.488Z,84.38
2018-03-31T08:24:52.471Z,84.38
2018-03-31T08:25:52.439Z,84.38
2018-03-31T08:26:52.417Z,84.38
2018-03-31T08:27:52.396Z,84.38
2018-03-31T08:28:52.369Z,84.38
2018-03-31T08:29:52.345Z,84.38
2018-03-31T08:30:52.317Z,84.38
2018-03-31T08:31:52.288Z,84.38
2018-03-31T08:32:52.262Z,84.38
2018-03-31T08:33:52.237Z,84.38
2018-03-31T08:34:52.206Z,84.38
2018-03-31T08:35:52.183Z,84.38
2018-03-31T08:36:52.335Z,84.38
2018-03-31T08:37:52.132Z,78.75
2018-03-31T08:38:52.112Z,78.75
2018-03-31T08:39:52.081Z,84.38
2018-03-31T08:40:52.062Z,84.38
2018-03-31T08:41:52.028Z,84.38
2018-03-31T08:42:52.007Z,84.38
2018-03-31T08:43:51.986Z,84.38
2018-03-31T08:44:51.952Z,90.00
2018-03-31T08:45:51.928Z,90.00
2018-03-31T08:46:51.895Z,84.38
2018-03-31T08:47:51.868Z,84.38
2018-03-31T08:48:51.850Z,84.38
2018-03-31T08:49:51.828Z,84.38
2018-03-31T08:50:51.796Z,90.00
2018-03-31T08:51:51.774Z,90.00
2018-03-31T08:52:51.740Z,84.38
2018-03-31T08:53:51.747Z,90.00
2018-03-31T08:54:52.040Z,90.00
2018-03-31T08:55:51.671Z,84.38
2018-03-31T08:56:51.637Z,90.00
2018-03-31T08:57:51.619Z,95.63
2018-03-31T08:58:51.584Z,95.63
2018-03-31T08:59:51.557Z,95.63
2018-03-31T09:00:51.540Z,95.63
2018-03-31T09:01:52.960Z,95.63
2018-03-31T09:02:51.490Z,95.63
2018-03-31T09:03:51.504Z,95.63
2018-03-31T09:04:51.437Z,95.63
2018-03-31T09:05:51.407Z,95.63
2018-03-31T09:06:51.384Z,95.63
2018-03-31T09:07:51.352Z,95.63
2018-03-31T09:08:51.329Z,95.63
2018-03-31T09:09:51.307Z,95.63
2018-03-31T09:10:51.277Z,95.63
2018-03-31T09:11:51.268Z,101.25
2018-03-31T09:12:51.225Z,101.25
2018-03-31T09:13:51.198Z,101.25
2018-03-31T09:14:51.178Z,101.25
2018-03-31T09:15:51.155Z,101.25
2018-03-31T09:16:51.123Z,101.25
2018-03-31T09:17:51.102Z,101.25
2018-03-31T09:18:51.370Z,101.25
2018-03-31T09:19:51.050Z,101.25
2018-03-31T09:20:51.022Z,101.25
2018-03-31T09:21:50.994Z,101.25
2018-03-31T09:22:50.968Z,101.25
2018-03-31T09:23:50.940Z,101.25
2018-03-31T09:24:50.937Z,95.63
2018-03-31T09:25:50.903Z,95.63
2018-03-31T09:26:50.923Z,95.63
2018-03-31T09:27:51.025Z,95.63
2018-03-31T09:28:51.795Z,95.63
2018-03-31T09:29:50.788Z,95.63
2018-03-31T09:30:50.767Z,95.63
2018-03-31T09:31:53.829Z,95.63
2018-03-31T09:32:50.720Z,95.63
2018-03-31T09:33:50.733Z,90.00
2018-03-31T09:34:50.744Z,95.63
2018-03-31T09:35:50.640Z,101.25
2018-03-31T09:36:50.614Z,95.63
2018-03-31T09:37:50.584Z,90.00
2018-03-31T09:38:50.558Z,95.63
2018-03-31T09:39:50.540Z,95.63
2018-03-31T09:40:50.510Z,95.63
2018-03-31T09:41:51.365Z,101.25
2018-03-31T09:42:50.458Z,101.25
2018-03-31T09:43:50.433Z,101.25
2018-03-31T09:44:50.407Z,101.25
2018-03-31T09:45:50.381Z,101.25
2018-03-31T09:46:50.402Z,101.25
2018-03-31T09:47:50.330Z,101.25
2018-03-31T09:48:50.307Z,101.25
2018-03-31T09:49:50.288Z,101.25
2018-03-31T09:50:50.250Z,101.25
2018-03-31T09:51:50.227Z,101.25
2018-03-31T09:52:50.206Z,101.25
2018-03-31T09:53:50.180Z,101.25
2018-03-31T09:54:50.163Z,95.63
2018-03-31T09:55:50.123Z,101.25
2018-03-31T09:56:50.117Z,90.00
2018-03-31T09:57:50.086Z,101.25
2018-03-31T09:58:50.056Z,101.25
2018-03-31T09:59:50.026Z,101.25
2018-03-31T10:00:50.005Z,101.25
2018-03-31T10:01:49.983Z,101.25
2018-03-31T10:02:49.952Z,101.25
2018-03-31T10:03:49.931Z,101.25
2018-03-31T10:04:49.951Z,101.25
2018-03-31T10:05:49.873Z,101.25
2018-03-31T10:06:49.856Z,101.25
2018-03-31T10:07:49.841Z,101.25
2018-03-31T10:08:49.805Z,101.25
2018-03-31T10:09:49.772Z,101.25
2018-03-31T10:10:49.749Z,101.25
2018-03-31T10:11:49.730Z,101.25
2018-03-31T10:12:49.707Z,95.63
2018-03-31T10:13:49.682Z,101.25
2018-03-31T10:14:49.649Z,101.25
2018-03-31T10:15:49.624Z,101.25
2018-03-31T10:16:49.603Z,101.25
2018-03-31T10:17:49.580Z,101.25
2018-03-31T10:18:49.546Z,101.25
2018-03-31T10:19:49.537Z,101.25
2018-03-31T10:20:49.495Z,101.25
2018-03-31T10:21:49.473Z,106.88
2018-03-31T10:22:49.505Z,112.50
2018-03-31T10:23:49.427Z,106.88
2018-03-31T10:24:49.410Z,101.25
2018-03-31T10:25:49.372Z,101.25
2018-03-31T10:26:49.364Z,106.88
2018-03-31T10:27:49.319Z,101.25
2018-03-31T10:28:49.303Z,106.88
2018-03-31T10:29:49.268Z,106.88
2018-03-31T10:30:49.250Z,112.50
2018-03-31T10:31:49.293Z,112.50
2018-03-31T10:32:49.194Z,112.50
2018-03-31T10:33:49.177Z,112.50
2018-03-31T10:34:49.153Z,118.13
2018-03-31T10:35:49.126Z,118.13
2018-03-31T10:36:49.100Z,118.13
2018-03-31T10:37:49.117Z,112.50
2018-03-31T10:38:49.070Z,112.50
2018-03-31T10:39:49.022Z,112.50
2018-03-31T10:40:49.022Z,112.50
2018-03-31T10:41:48.982Z,112.50
2018-03-31T10:42:48.941Z,112.50
2018-03-31T10:43:48.961Z,112.50
2018-03-31T10:44:48.893Z,106.88
2018-03-31T10:45:48.866Z,106.88
2018-03-31T10:46:48.845Z,106.88
2018-03-31T10:47:48.814Z,106.88
2018-03-31T10:48:48.800Z,112.50
2018-03-31T10:49:48.770Z,106.88
2018-03-31T10:50:48.750Z,112.50
2018-03-31T10:51:48.724Z,106.88
2018-03-31T10:52:48.717Z,106.88
2018-03-31T10:53:48.803Z,112.50
2018-03-31T10:54:48.647Z,112.50
2018-03-31T10:55:48.617Z,106.88
2018-03-31T10:56:48.594Z,106.88
2018-03-31T10:57:48.567Z,106.88
2018-03-31T10:58:48.538Z,101.25
2018-03-31T10:59:48.522Z,101.25
2018-03-31T11:00:48.493Z,106.88
2018-03-31T11:01:48.508Z,106.88
2018-03-31T11:02:48.445Z,106.88
2018-03-31T11:03:48.414Z,112.50
2018-03-31T11:04:48.399Z,118.13
2018-03-31T11:05:48.365Z,118.13
2018-03-31T11:06:48.343Z,118.13
2018-03-31T11:07:48.318Z,118.13
2018-03-31T11:08:48.297Z,118.13
2018-03-31T11:09:48.272Z,118.13
2018-03-31T11:10:49.140Z,112.50
2018-03-31T11:11:48.221Z,123.75
2018-03-31T11:12:48.210Z,123.75
2018-03-31T11:13:48.173Z,106.88
2018-03-31T11:14:48.147Z,112.50
2018-03-31T11:15:48.135Z,123.75
2018-03-31T11:16:48.095Z,135.00
2018-03-31T11:17:48.067Z,135.00
2018-03-31T11:18:48.063Z,140.63
2018-03-31T11:19:48.037Z,140.63
2018-03-31T11:20:47.998Z,129.38
2018-03-31T11:21:47.971Z,135.00
2018-03-31T11:22:47.958Z,135.00
2018-03-31T11:23:47.917Z,140.63
2018-03-31T11:24:47.895Z,140.63
2018-03-31T11:25:47.876Z,146.25
2018-03-31T11:26:47.843Z,157.50
2018-03-31T11:27:47.821Z,168.75
2018-03-31T11:28:47.816Z,168.75
2018-03-31T11:29:47.777Z,157.50
2018-03-31T11:30:47.742Z,151.88
2018-03-31T11:31:47.729Z,157.50
2018-03-31T11:32:47.696Z,135.00
2018-03-31T11:33:47.684Z,123.75
2018-03-31T11:34:47.653Z,123.75
2018-03-31T11:35:47.624Z,129.38
2018-03-31T11:36:47.600Z,123.75
2018-03-31T11:37:47.582Z,112.50
2018-03-31T11:38:47.550Z,123.75
2018-03-31T11:39:47.525Z,106.88
2018-03-31T11:40:47.513Z,101.25
2018-03-31T11:41:47.481Z,101.25
2018-03-31T11:42:47.452Z,112.50
2018-03-31T11:43:47.437Z,106.88
2018-03-31T11:44:47.404Z,112.50
2018-03-31T11:45:47.439Z,112.50
2018-03-31T11:46:47.358Z,106.88
2018-03-31T11:47:47.331Z,112.50
2018-03-31T11:48:47.305Z,112.50
2018-03-31T11:49:47.283Z,112.50
2018-03-31T11:50:47.257Z,112.50
2018-03-31T11:51:47.230Z,118.13
2018-03-31T11:52:47.209Z,118.13
2018-03-31T11:53:47.190Z,123.75
2018-03-31T11:54:47.172Z,123.75
2018-03-31T11:55:47.136Z,123.75
2018-03-31T11:56:47.115Z,123.75
2018-03-31T11:57:47.090Z,118.13
2018-03-31T11:58:47.064Z,118.13
2018-03-31T11:59:47.042Z,118.13
2018-03-31T12:00:47.013Z,112.50
2018-03-31T12:01:46.994Z,112.50
2018-03-31T12:02:46.971Z,112.50
2018-03-31T12:03:46.952Z,112.50
2018-03-31T12:04:46.921Z,118.13
2018-03-31T12:05:46.910Z,118.13
2018-03-31T12:06:46.909Z,118.13
2018-03-31T12:07:46.842Z,112.50
2018-03-31T12:08:46.828Z,118.13
2018-03-31T12:09:46.872Z,123.75
2018-03-31T12:10:46.773Z,123.75
2018-03-31T12:11:46.757Z,112.50
2018-03-31T12:12:46.726Z,112.50
2018-03-31T12:13:46.702Z,112.50
2018-03-31T12:14:46.674Z,112.50
2018-03-31T12:15:46.654Z,112.50
2018-03-31T12:16:46.634Z,112.50
2018-03-31T12:17:46.616Z,112.50
2018-03-31T12:18:46.572Z,112.50
2018-03-31T12:19:46.565Z,118.13
2018-03-31T12:20:46.533Z,118.13
2018-03-31T12:21:46.498Z,123.75
2018-03-31T12:22:46.479Z,123.75
2018-03-31T12:23:46.450Z,129.38
2018-03-31T12:24:46.432Z,129.38
2018-03-31T12:25:46.414Z,129.38
2018-03-31T12:26:46.384Z,129.38
2018-03-31T12:27:46.366Z,129.38
2018-03-31T12:28:46.393Z,123.75
2018-03-31T12:29:46.345Z,123.75
2018-03-31T12:30:46.301Z,123.75
2018-03-31T12:31:46.253Z,123.75
2018-03-31T12:32:46.236Z,123.75
2018-03-31T12:33:46.210Z,123.75
2018-03-31T12:34:46.199Z,129.38
2018-03-31T12:35:46.179Z,129.38
2018-03-31T12:36:46.137Z,129.38
2018-03-31T12:37:46.111Z,129.38
2018-03-31T12:38:46.092Z,135.00
2018-03-31T12:39:46.068Z,129.38
2018-03-31T12:40:46.035Z,135.00
2018-03-31T12:41:46.016Z,129.38
2018-03-31T12:42:45.981Z,135.00
2018-03-31T12:43:45.964Z,140.63
2018-03-31T12:44:45.940Z,140.63
2018-03-31T12:45:45.917Z,135.00
2018-03-31T12:46:45.895Z,140.63
2018-03-31T12:47:45.891Z,140.63
2018-03-31T12:48:45.842Z,140.63
2018-03-31T12:49:45.848Z,135.00
2018-03-31T12:50:45.794Z,135.00
2018-03-31T12:51:45.820Z,140.63
2018-03-31T12:52:45.741Z,146.25
2018-03-31T12:53:45.728Z,157.50
2018-03-31T12:54:45.710Z,163.13
2018-03-31T12:55:45.675Z,157.50
2018-03-31T12:56:45.695Z,157.50